sensor_id;sensor_type;location;lat;lon;timestamp;P1;durP1;ratioP1;P2;durP2;ratioP2
85559;SDS011;76003;49.038;16.594;2024-02-15T00:01:04;69.78;;;30.50;;
85559;SDS011;76003;49.038;16.594;2024-02-15T00:03:45;67.90;;;29.25;;
85559;SDS011;76003;49.038;16.594;2024-02-15T00:06:26;63.83;;;28.27;;
85559;SDS011;76003;49.038;16.594;2024-02-15T00:09:06;58.38;;;25.92;;
85559;SDS011;76003;49.038;16.594;2024-02-15T00:11:47;67.70;;;29.95;;
85559;SDS011;76003;49.038;16.594;2024-02-15T00:14:19;65.53;;;30.00;;
85559;SDS011;76003;49.038;16.594;2024-02-15T00:17:06;75.90;;;30.40;;
85559;SDS011;76003;49.038;16.594;2024-02-15T00:19:32;80.30;;;31.00;;
85559;SDS011;76003;49.038;16.594;2024-02-15T00:22:18;65.53;;;30.15;;
85559;SDS011;76003;49.038;16.594;2024-02-15T00:24:46;71.45;;;30.25;;
85559;SDS011;76003;49.038;16.594;2024-02-15T00:27:14;72.30;;;30.13;;
85559;SDS011;76003;49.038;16.594;2024-02-15T00:29:43;70.05;;;28.00;;
85559;SDS011;76003;49.038;16.594;2024-02-15T00:32:29;65.68;;;29.92;;
85559;SDS011;76003;49.038;16.594;2024-02-15T00:35:10;74.32;;;30.38;;
85559;SDS011;76003;49.038;16.594;2024-02-15T00:40:31;68.75;;;30.38;;
85559;SDS011;76003;49.038;16.594;2024-02-15T00:45:52;64.50;;;27.88;;
85559;SDS011;76003;49.038;16.594;2024-02-15T00:48:32;70.25;;;31.08;;
85559;SDS011;76003;49.038;16.594;2024-02-15T00:50:58;68.95;;;29.55;;
85559;SDS011;76003;49.038;16.594;2024-02-15T00:53:45;73.50;;;29.85;;
85559;SDS011;76003;49.038;16.594;2024-02-15T00:56:11;74.90;;;30.80;;
85559;SDS011;76003;49.038;16.594;2024-02-15T00:59:01;77.53;;;31.65;;
85559;SDS011;76003;49.038;16.594;2024-02-15T01:01:27;80.57;;;34.05;;
85559;SDS011;76003;49.038;16.594;2024-02-15T01:04:24;84.75;;;34.63;;
85559;SDS011;76003;49.038;16.594;2024-02-15T01:06:50;102.47;;;40.05;;
85559;SDS011;76003;49.038;16.594;2024-02-15T01:09:37;93.40;;;39.50;;
85559;SDS011;76003;49.038;16.594;2024-02-15T01:12:02;102.32;;;41.20;;
85559;SDS011;76003;49.038;16.594;2024-02-15T01:14:31;107.68;;;42.05;;
85559;SDS011;76003;49.038;16.594;2024-02-15T01:16:57;112.28;;;44.97;;
85559;SDS011;76003;49.038;16.594;2024-02-15T01:19:22;189.50;;;66.55;;
85559;SDS011;76003;49.038;16.594;2024-02-15T01:21:47;187.88;;;64.07;;
85559;SDS011;76003;49.038;16.594;2024-02-15T01:24:13;190.35;;;64.82;;
85559;SDS011;76003;49.038;16.594;2024-02-15T01:26:38;156.63;;;59.35;;
85559;SDS011;76003;49.038;16.594;2024-02-15T01:29:04;130.32;;;47.17;;
85559;SDS011;76003;49.038;16.594;2024-02-15T01:31:29;113.15;;;45.28;;
85559;SDS011;76003;49.038;16.594;2024-02-15T01:33:55;80.70;;;34.00;;
85559;SDS011;76003;49.038;16.594;2024-02-15T01:36:43;78.30;;;34.80;;
85559;SDS011;76003;49.038;16.594;2024-02-15T01:39:23;74.05;;;33.95;;
85559;SDS011;76003;49.038;16.594;2024-02-15T01:41:49;90.13;;;35.42;;
85559;SDS011;76003;49.038;16.594;2024-02-15T01:44:41;85.43;;;34.78;;
85559;SDS011;76003;49.038;16.594;2024-02-15T01:47:10;84.72;;;34.05;;
85559;SDS011;76003;49.038;16.594;2024-02-15T01:50:13;86.97;;;35.17;;
85559;SDS011;76003;49.038;16.594;2024-02-15T01:52:54;75.30;;;33.75;;
85559;SDS011;76003;49.038;16.594;2024-02-15T01:55:37;76.63;;;31.45;;
85559;SDS011;76003;49.038;16.594;2024-02-15T01:58:19;91.60;;;37.50;;
85559;SDS011;76003;49.038;16.594;2024-02-15T02:01:00;76.78;;;32.38;;
85559;SDS011;76003;49.038;16.594;2024-02-15T02:03:42;87.35;;;34.08;;
85559;SDS011;76003;49.038;16.594;2024-02-15T02:06:24;83.97;;;36.00;;
85559;SDS011;76003;49.038;16.594;2024-02-15T02:08:50;93.72;;;34.55;;
85559;SDS011;76003;49.038;16.594;2024-02-15T02:11:36;78.70;;;31.20;;
85559;SDS011;76003;49.038;16.594;2024-02-15T02:15:02;87.65;;;32.97;;
85559;SDS011;76003;49.038;16.594;2024-02-15T02:17:28;89.30;;;33.97;;
85559;SDS011;76003;49.038;16.594;2024-02-15T02:20:14;84.85;;;32.33;;
85559;SDS011;76003;49.038;16.594;2024-02-15T02:22:40;86.97;;;32.38;;
85559;SDS011;76003;49.038;16.594;2024-02-15T02:25:27;79.28;;;32.28;;
85559;SDS011;76003;49.038;16.594;2024-02-15T02:28:08;83.38;;;33.15;;
85559;SDS011;76003;49.038;16.594;2024-02-15T02:30:49;76.03;;;30.73;;
85559;SDS011;76003;49.038;16.594;2024-02-15T02:33:30;73.68;;;32.03;;
85559;SDS011;76003;49.038;16.594;2024-02-15T02:36:11;74.38;;;33.35;;
85559;SDS011;76003;49.038;16.594;2024-02-15T02:38:52;81.47;;;30.70;;
85559;SDS011;76003;49.038;16.594;2024-02-15T02:41:33;77.00;;;32.53;;
85559;SDS011;76003;49.038;16.594;2024-02-15T02:44:14;74.30;;;29.45;;
85559;SDS011;76003;49.038;16.594;2024-02-15T02:46:54;85.88;;;29.92;;
85559;SDS011;76003;49.038;16.594;2024-02-15T02:49:35;76.15;;;31.50;;
85559;SDS011;76003;49.038;16.594;2024-02-15T02:52:01;66.35;;;28.23;;
85559;SDS011;76003;49.038;16.594;2024-02-15T02:54:47;69.63;;;28.08;;
85559;SDS011;76003;49.038;16.594;2024-02-15T02:57:22;75.72;;;31.65;;
85559;SDS011;76003;49.038;16.594;2024-02-15T03:00:12;77.80;;;32.72;;
85559;SDS011;76003;49.038;16.594;2024-02-15T03:02:42;71.03;;;30.88;;
85559;SDS011;76003;49.038;16.594;2024-02-15T03:05:29;66.38;;;30.60;;
85559;SDS011;76003;49.038;16.594;2024-02-15T03:08:12;78.65;;;30.67;;
85559;SDS011;76003;49.038;16.594;2024-02-15T03:10:53;69.07;;;27.85;;
85559;SDS011;76003;49.038;16.594;2024-02-15T03:13:33;84.28;;;32.22;;
85559;SDS011;76003;49.038;16.594;2024-02-15T03:16:14;70.85;;;30.63;;
85559;SDS011;76003;49.038;16.594;2024-02-15T03:18:54;71.43;;;29.48;;
85559;SDS011;76003;49.038;16.594;2024-02-15T03:21:34;68.05;;;31.05;;
85559;SDS011;76003;49.038;16.594;2024-02-15T03:24:15;73.15;;;30.92;;
85559;SDS011;76003;49.038;16.594;2024-02-15T03:26:42;71.30;;;28.23;;
85559;SDS011;76003;49.038;16.594;2024-02-15T03:29:28;75.75;;;31.50;;
85559;SDS011;76003;49.038;16.594;2024-02-15T03:32:09;74.80;;;32.25;;
85559;SDS011;76003;49.038;16.594;2024-02-15T03:34:51;77.32;;;32.40;;
85559;SDS011;76003;49.038;16.594;2024-02-15T03:37:24;59.55;;;26.92;;
85559;SDS011;76003;49.038;16.594;2024-02-15T03:40:11;64.85;;;28.45;;
85559;SDS011;76003;49.038;16.594;2024-02-15T03:42:38;65.00;;;27.20;;
85559;SDS011;76003;49.038;16.594;2024-02-15T03:45:24;56.78;;;26.05;;
85559;SDS011;76003;49.038;16.594;2024-02-15T03:48:05;57.95;;;26.80;;
85559;SDS011;76003;49.038;16.594;2024-02-15T03:50:47;55.30;;;25.80;;
85559;SDS011;76003;49.038;16.594;2024-02-15T03:53:28;55.45;;;25.08;;
85559;SDS011;76003;49.038;16.594;2024-02-15T03:56:11;57.38;;;24.80;;
85559;SDS011;76003;49.038;16.594;2024-02-15T03:58:51;58.55;;;24.67;;
85559;SDS011;76003;49.038;16.594;2024-02-15T04:01:25;60.53;;;27.70;;
85559;SDS011;76003;49.038;16.594;2024-02-15T04:04:13;65.50;;;26.50;;
85559;SDS011;76003;49.038;16.594;2024-02-15T04:06:39;78.35;;;34.40;;
85559;SDS011;76003;49.038;16.594;2024-02-15T04:09:06;75.10;;;32.63;;
85559;SDS011;76003;49.038;16.594;2024-02-15T04:11:32;73.10;;;32.35;;
85559;SDS011;76003;49.038;16.594;2024-02-15T04:13:59;79.07;;;32.92;;
85559;SDS011;76003;49.038;16.594;2024-02-15T04:16:45;70.28;;;30.05;;
85559;SDS011;76003;49.038;16.594;2024-02-15T04:19:11;69.25;;;32.00;;
85559;SDS011;76003;49.038;16.594;2024-02-15T04:21:57;64.63;;;26.42;;
85559;SDS011;76003;49.038;16.594;2024-02-15T04:25:24;58.55;;;27.85;;
85559;SDS011;76003;49.038;16.594;2024-02-15T04:28:53;59.20;;;26.05;;
85559;SDS011;76003;49.038;16.594;2024-02-15T04:32:18;68.57;;;28.40;;
85559;SDS011;76003;49.038;16.594;2024-02-15T04:35:44;68.57;;;30.08;;
85559;SDS011;76003;49.038;16.594;2024-02-15T04:38:10;72.80;;;31.90;;
85559;SDS011;76003;49.038;16.594;2024-02-15T04:40:57;75.30;;;30.60;;
85559;SDS011;76003;49.038;16.594;2024-02-15T04:43:40;71.50;;;32.20;;
85559;SDS011;76003;49.038;16.594;2024-02-15T04:46:23;83.90;;;28.02;;
85559;SDS011;76003;49.038;16.594;2024-02-15T04:49:05;67.18;;;30.58;;
85559;SDS011;76003;49.038;16.594;2024-02-15T04:51:48;69.93;;;31.65;;
85559;SDS011;76003;49.038;16.594;2024-02-15T04:54:14;72.65;;;29.02;;
85559;SDS011;76003;49.038;16.594;2024-02-15T04:57:01;63.60;;;27.23;;
85559;SDS011;76003;49.038;16.594;2024-02-15T04:59:26;71.85;;;28.20;;
85559;SDS011;76003;49.038;16.594;2024-02-15T05:02:15;73.53;;;29.85;;
85559;SDS011;76003;49.038;16.594;2024-02-15T05:04:55;82.20;;;30.02;;
85559;SDS011;76003;49.038;16.594;2024-02-15T05:07:36;61.53;;;29.30;;
85559;SDS011;76003;49.038;16.594;2024-02-15T05:10:20;66.28;;;27.45;;
85559;SDS011;76003;49.038;16.594;2024-02-15T05:12:53;75.18;;;28.90;;
85559;SDS011;76003;49.038;16.594;2024-02-15T05:15:41;65.00;;;28.17;;
85559;SDS011;76003;49.038;16.594;2024-02-15T05:18:22;66.57;;;28.38;;
85559;SDS011;76003;49.038;16.594;2024-02-15T05:21:03;62.05;;;26.98;;
85559;SDS011;76003;49.038;16.594;2024-02-15T05:23:44;70.63;;;29.10;;
85559;SDS011;76003;49.038;16.594;2024-02-15T05:26:26;59.83;;;28.60;;
85559;SDS011;76003;49.038;16.594;2024-02-15T05:28:55;65.32;;;28.13;;
85559;SDS011;76003;49.038;16.594;2024-02-15T05:31:42;60.72;;;27.80;;
85559;SDS011;76003;49.038;16.594;2024-02-15T05:34:09;71.80;;;30.67;;
85559;SDS011;76003;49.038;16.594;2024-02-15T05:36:57;65.30;;;27.88;;
85559;SDS011;76003;49.038;16.594;2024-02-15T05:39:38;65.95;;;28.40;;
85559;SDS011;76003;49.038;16.594;2024-02-15T05:42:19;66.47;;;29.23;;
85559;SDS011;76003;49.038;16.594;2024-02-15T05:47:40;66.65;;;28.27;;
85559;SDS011;76003;49.038;16.594;2024-02-15T05:50:27;58.17;;;26.30;;
85559;SDS011;76003;49.038;16.594;2024-02-15T05:53:09;70.35;;;28.17;;
85559;SDS011;76003;49.038;16.594;2024-02-15T05:55:50;73.20;;;28.30;;
85559;SDS011;76003;49.038;16.594;2024-02-15T05:58:31;74.57;;;30.35;;
85559;SDS011;76003;49.038;16.594;2024-02-15T06:01:11;63.67;;;29.92;;
85559;SDS011;76003;49.038;16.594;2024-02-15T06:03:39;74.22;;;28.67;;
85559;SDS011;76003;49.038;16.594;2024-02-15T06:06:27;63.47;;;27.20;;
85559;SDS011;76003;49.038;16.594;2024-02-15T06:08:54;75.82;;;28.90;;
85559;SDS011;76003;49.038;16.594;2024-02-15T06:11:45;74.70;;;30.98;;
85559;SDS011;76003;49.038;16.594;2024-02-15T06:17:06;70.95;;;30.63;;
85559;SDS011;76003;49.038;16.594;2024-02-15T06:19:46;64.45;;;29.15;;
85559;SDS011;76003;49.038;16.594;2024-02-15T06:22:27;64.93;;;29.48;;
85559;SDS011;76003;49.038;16.594;2024-02-15T06:25:08;71.70;;;29.25;;
85559;SDS011;76003;49.038;16.594;2024-02-15T06:27:36;69.93;;;30.85;;
85559;SDS011;76003;49.038;16.594;2024-02-15T06:30:26;68.50;;;30.58;;
85559;SDS011;76003;49.038;16.594;2024-02-15T06:33:25;65.03;;;27.02;;
85559;SDS011;76003;49.038;16.594;2024-02-15T06:36:24;71.38;;;30.15;;
85559;SDS011;76003;49.038;16.594;2024-02-15T06:39:08;67.47;;;27.10;;
85559;SDS011;76003;49.038;16.594;2024-02-15T06:42:16;65.10;;;27.88;;
85559;SDS011;76003;49.038;16.594;2024-02-15T06:45:00;64.30;;;27.85;;
85559;SDS011;76003;49.038;16.594;2024-02-15T06:47:41;69.95;;;30.40;;
85559;SDS011;76003;49.038;16.594;2024-02-15T06:50:10;76.82;;;27.30;;
85559;SDS011;76003;49.038;16.594;2024-02-15T06:52:57;73.60;;;27.48;;
85559;SDS011;76003;49.038;16.594;2024-02-15T06:55:38;64.28;;;26.55;;
85559;SDS011;76003;49.038;16.594;2024-02-15T06:58:20;62.10;;;27.60;;
85559;SDS011;76003;49.038;16.594;2024-02-15T07:00:45;58.92;;;28.42;;
85559;SDS011;76003;49.038;16.594;2024-02-15T07:03:11;65.80;;;27.60;;
85559;SDS011;76003;49.038;16.594;2024-02-15T07:05:57;74.72;;;28.42;;
85559;SDS011;76003;49.038;16.594;2024-02-15T07:08:38;65.50;;;30.17;;
85559;SDS011;76003;49.038;16.594;2024-02-15T07:11:20;67.47;;;28.50;;
85559;SDS011;76003;49.038;16.594;2024-02-15T07:14:02;65.45;;;30.45;;
85559;SDS011;76003;49.038;16.594;2024-02-15T07:16:30;62.45;;;28.23;;
85559;SDS011;76003;49.038;16.594;2024-02-15T07:19:16;70.78;;;28.23;;
85559;SDS011;76003;49.038;16.594;2024-02-15T07:21:58;75.45;;;31.38;;
85559;SDS011;76003;49.038;16.594;2024-02-15T07:24:39;66.20;;;29.13;;
85559;SDS011;76003;49.038;16.594;2024-02-15T07:27:05;71.07;;;32.95;;
85559;SDS011;76003;49.038;16.594;2024-02-15T07:29:52;71.57;;;32.75;;
85559;SDS011;76003;49.038;16.594;2024-02-15T07:32:18;82.45;;;34.25;;
85559;SDS011;76003;49.038;16.594;2024-02-15T07:36:00;73.05;;;31.05;;
85559;SDS011;76003;49.038;16.594;2024-02-15T07:38:26;71.88;;;31.70;;
85559;SDS011;76003;49.038;16.594;2024-02-15T07:41:13;73.78;;;32.22;;
85559;SDS011;76003;49.038;16.594;2024-02-15T07:44:38;75.30;;;31.23;;
85559;SDS011;76003;49.038;16.594;2024-02-15T07:48:04;77.53;;;32.80;;
85559;SDS011;76003;49.038;16.594;2024-02-15T07:51:15;73.28;;;34.53;;
85559;SDS011;76003;49.038;16.594;2024-02-15T07:53:42;86.20;;;38.72;;
85559;SDS011;76003;49.038;16.594;2024-02-15T07:59:54;92.43;;;36.92;;
85559;SDS011;76003;49.038;16.594;2024-02-15T08:02:20;85.55;;;36.08;;
85559;SDS011;76003;49.038;16.594;2024-02-15T08:05:11;92.10;;;37.85;;
85559;SDS011;76003;49.038;16.594;2024-02-15T08:07:40;82.57;;;35.38;;
85559;SDS011;76003;49.038;16.594;2024-02-15T08:10:07;95.78;;;39.20;;
85559;SDS011;76003;49.038;16.594;2024-02-15T08:13:12;81.15;;;34.78;;
85559;SDS011;76003;49.038;16.594;2024-02-15T08:15:40;86.22;;;36.08;;
85559;SDS011;76003;49.038;16.594;2024-02-15T08:18:28;79.35;;;34.35;;
85559;SDS011;76003;49.038;16.594;2024-02-15T08:21:08;83.55;;;37.03;;
85559;SDS011;76003;49.038;16.594;2024-02-15T08:23:49;81.70;;;37.80;;
85559;SDS011;76003;49.038;16.594;2024-02-15T08:26:32;86.82;;;36.22;;
85559;SDS011;76003;49.038;16.594;2024-02-15T08:29:18;76.57;;;32.78;;
85559;SDS011;76003;49.038;16.594;2024-02-15T08:31:59;79.45;;;35.58;;
85559;SDS011;76003;49.038;16.594;2024-02-15T08:34:40;74.85;;;34.08;;
85559;SDS011;76003;49.038;16.594;2024-02-15T08:37:06;66.88;;;32.00;;
85559;SDS011;76003;49.038;16.594;2024-02-15T08:42:19;67.88;;;29.98;;
85559;SDS011;76003;49.038;16.594;2024-02-15T08:45:08;54.17;;;27.90;;
85559;SDS011;76003;49.038;16.594;2024-02-15T08:47:38;60.10;;;27.40;;
85559;SDS011;76003;49.038;16.594;2024-02-15T08:51:21;54.00;;;25.10;;
85559;SDS011;76003;49.038;16.594;2024-02-15T08:54:47;61.63;;;27.70;;
85559;SDS011;76003;49.038;16.594;2024-02-15T08:57:13;64.22;;;29.08;;
85559;SDS011;76003;49.038;16.594;2024-02-15T08:59:59;70.45;;;31.55;;
85559;SDS011;76003;49.038;16.594;2024-02-15T09:03:25;72.35;;;32.55;;
85559;SDS011;76003;49.038;16.594;2024-02-15T09:06:50;64.47;;;30.88;;
85559;SDS011;76003;49.038;16.594;2024-02-15T09:10:16;75.78;;;31.95;;
85559;SDS011;76003;49.038;16.594;2024-02-15T09:12:43;66.80;;;28.65;;
85559;SDS011;76003;49.038;16.594;2024-02-15T09:15:50;61.45;;;28.15;;
85559;SDS011;76003;49.038;16.594;2024-02-15T09:18:16;63.55;;;28.17;;
85559;SDS011;76003;49.038;16.594;2024-02-15T09:21:08;64.93;;;29.15;;
85559;SDS011;76003;49.038;16.594;2024-02-15T09:23:35;61.13;;;29.27;;
85559;SDS011;76003;49.038;16.594;2024-02-15T09:26:17;62.60;;;29.42;;
85559;SDS011;76003;49.038;16.594;2024-02-15T09:29:30;66.30;;;27.80;;
85559;SDS011;76003;49.038;16.594;2024-02-15T09:31:58;58.10;;;29.15;;
85559;SDS011;76003;49.038;16.594;2024-02-15T09:34:47;56.67;;;25.80;;
85559;SDS011;76003;49.038;16.594;2024-02-15T09:38:14;57.20;;;23.63;;
85559;SDS011;76003;49.038;16.594;2024-02-15T09:41:41;44.75;;;20.38;;
85559;SDS011;76003;49.038;16.594;2024-02-15T09:45:10;32.80;;;13.20;;
85559;SDS011;76003;49.038;16.594;2024-02-15T09:48:41;33.58;;;14.55;;
85559;SDS011;76003;49.038;16.594;2024-02-15T09:51:12;38.17;;;15.48;;
85559;SDS011;76003;49.038;16.594;2024-02-15T09:53:38;30.10;;;14.02;;
85559;SDS011;76003;49.038;16.594;2024-02-15T09:56:26;35.17;;;14.50;;
85559;SDS011;76003;49.038;16.594;2024-02-15T09:58:54;35.60;;;14.07;;
85559;SDS011;76003;49.038;16.594;2024-02-15T10:01:40;32.80;;;14.32;;
85559;SDS011;76003;49.038;16.594;2024-02-15T10:04:22;31.23;;;14.65;;
85559;SDS011;76003;49.038;16.594;2024-02-15T10:06:48;28.83;;;15.85;;
85559;SDS011;76003;49.038;16.594;2024-02-15T10:09:34;33.50;;;15.98;;
85559;SDS011;76003;49.038;16.594;2024-02-15T10:12:17;41.25;;;16.95;;
85559;SDS011;76003;49.038;16.594;2024-02-15T10:14:58;42.35;;;15.57;;
85559;SDS011;76003;49.038;16.594;2024-02-15T10:18:24;40.00;;;16.08;;
85559;SDS011;76003;49.038;16.594;2024-02-15T10:23:45;43.35;;;16.05;;
85559;SDS011;76003;49.038;16.594;2024-02-15T10:26:26;39.05;;;16.25;;
85559;SDS011;76003;49.038;16.594;2024-02-15T10:29:04;29.77;;;15.48;;
85559;SDS011;76003;49.038;16.594;2024-02-15T10:31:55;37.05;;;15.93;;
85559;SDS011;76003;49.038;16.594;2024-02-15T10:34:44;46.08;;;17.65;;
85559;SDS011;76003;49.038;16.594;2024-02-15T10:37:25;38.28;;;16.80;;
85559;SDS011;76003;49.038;16.594;2024-02-15T10:42:33;38.30;;;15.00;;
85559;SDS011;76003;49.038;16.594;2024-02-15T10:45:22;35.08;;;16.38;;
85559;SDS011;76003;49.038;16.594;2024-02-15T10:47:49;33.95;;;17.10;;
85559;SDS011;76003;49.038;16.594;2024-02-15T10:50:35;32.70;;;17.23;;
85559;SDS011;76003;49.038;16.594;2024-02-15T10:54:02;40.88;;;16.27;;
85559;SDS011;76003;49.038;16.594;2024-02-15T10:57:34;40.75;;;17.08;;
85559;SDS011;76003;49.038;16.594;2024-02-15T11:01:05;31.92;;;15.50;;
85559;SDS011;76003;49.038;16.594;2024-02-15T11:03:54;38.33;;;15.85;;
85559;SDS011;76003;49.038;16.594;2024-02-15T11:06:26;38.53;;;15.80;;
85559;SDS011;76003;49.038;16.594;2024-02-15T11:09:16;37.05;;;15.75;;
85559;SDS011;76003;49.038;16.594;2024-02-15T11:11:42;38.63;;;15.65;;
85559;SDS011;76003;49.038;16.594;2024-02-15T11:14:31;36.72;;;15.40;;
85559;SDS011;76003;49.038;16.594;2024-02-15T11:17:12;35.92;;;16.13;;
85559;SDS011;76003;49.038;16.594;2024-02-15T11:20:29;43.50;;;17.10;;
85559;SDS011;76003;49.038;16.594;2024-02-15T11:23:26;40.58;;;17.42;;
85559;SDS011;76003;49.038;16.594;2024-02-15T11:26:42;44.25;;;17.70;;
85559;SDS011;76003;49.038;16.594;2024-02-15T11:29:47;35.03;;;17.17;;
85559;SDS011;76003;49.038;16.594;2024-02-15T11:32:35;40.75;;;17.23;;
85559;SDS011;76003;49.038;16.594;2024-02-15T11:35:25;37.58;;;17.60;;
85559;SDS011;76003;49.038;16.594;2024-02-15T11:38:08;38.00;;;15.40;;
85559;SDS011;76003;49.038;16.594;2024-02-15T11:46:40;40.58;;;14.13;;
85559;SDS011;76003;49.038;16.594;2024-02-15T11:49:06;42.20;;;17.40;;
85559;SDS011;76003;49.038;16.594;2024-02-15T11:53:01;32.88;;;14.43;;
85559;SDS011;76003;49.038;16.594;2024-02-15T11:55:34;43.08;;;15.93;;
85559;SDS011;76003;49.038;16.594;2024-02-15T11:58:38;38.17;;;17.05;;
85559;SDS011;76003;49.038;16.594;2024-02-15T12:01:18;35.33;;;15.45;;
85559;SDS011;76003;49.038;16.594;2024-02-15T12:04:33;31.33;;;15.50;;
85559;SDS011;76003;49.038;16.594;2024-02-15T12:07:18;33.15;;;14.57;;
85559;SDS011;76003;49.038;16.594;2024-02-15T12:10:39;39.75;;;15.27;;
85559;SDS011;76003;49.038;16.594;2024-02-15T12:14:23;32.00;;;14.93;;
85559;SDS011;76003;49.038;16.594;2024-02-15T12:18:14;35.75;;;16.02;;
85559;SDS011;76003;49.038;16.594;2024-02-15T12:21:01;30.42;;;16.00;;
85559;SDS011;76003;49.038;16.594;2024-02-15T12:23:48;35.80;;;14.48;;
85559;SDS011;76003;49.038;16.594;2024-02-15T12:26:30;34.03;;;13.77;;
85559;SDS011;76003;49.038;16.594;2024-02-15T12:29:17;28.70;;;14.35;;
85559;SDS011;76003;49.038;16.594;2024-02-15T12:31:43;29.10;;;14.52;;
85559;SDS011;76003;49.038;16.594;2024-02-15T12:34:46;31.20;;;16.05;;
85559;SDS011;76003;49.038;16.594;2024-02-15T12:37:13;32.78;;;14.57;;
85559;SDS011;76003;49.038;16.594;2024-02-15T12:40:55;37.78;;;14.23;;
85559;SDS011;76003;49.038;16.594;2024-02-15T12:43:21;33.70;;;13.95;;
85559;SDS011;76003;49.038;16.594;2024-02-15T12:46:07;28.25;;;14.18;;
85559;SDS011;76003;49.038;16.594;2024-02-15T12:48:48;34.15;;;13.85;;
85559;SDS011;76003;49.038;16.594;2024-02-15T12:51:30;25.17;;;12.85;;
85559;SDS011;76003;49.038;16.594;2024-02-15T12:54:11;30.45;;;12.75;;
85559;SDS011;76003;49.038;16.594;2024-02-15T12:57:06;24.48;;;11.82;;
85559;SDS011;76003;49.038;16.594;2024-02-15T12:59:49;28.98;;;13.15;;
85559;SDS011;76003;49.038;16.594;2024-02-15T13:02:15;31.90;;;13.95;;
85559;SDS011;76003;49.038;16.594;2024-02-15T13:05:03;31.23;;;13.75;;
85559;SDS011;76003;49.038;16.594;2024-02-15T13:07:30;36.25;;;14.27;;
85559;SDS011;76003;49.038;16.594;2024-02-15T13:10:33;28.75;;;14.40;;
85559;SDS011;76003;49.038;16.594;2024-02-15T13:12:59;31.00;;;13.82;;
85559;SDS011;76003;49.038;16.594;2024-02-15T13:16:41;36.22;;;14.73;;
85559;SDS011;76003;49.038;16.594;2024-02-15T13:19:10;26.42;;;11.95;;
85559;SDS011;76003;49.038;16.594;2024-02-15T13:21:56;32.83;;;15.73;;
85559;SDS011;76003;49.038;16.594;2024-02-15T13:25:22;35.72;;;16.23;;
85559;SDS011;76003;49.038;16.594;2024-02-15T13:28:48;37.20;;;15.70;;
85559;SDS011;76003;49.038;16.594;2024-02-15T13:32:14;35.35;;;15.65;;
85559;SDS011;76003;49.038;16.594;2024-02-15T13:35:42;33.30;;;15.15;;
85559;SDS011;76003;49.038;16.594;2024-02-15T13:38:08;38.42;;;16.10;;
85559;SDS011;76003;49.038;16.594;2024-02-15T13:41:00;35.40;;;16.25;;
85559;SDS011;76003;49.038;16.594;2024-02-15T13:43:29;34.85;;;17.70;;
85559;SDS011;76003;49.038;16.594;2024-02-15T13:46:16;37.42;;;17.77;;
85559;SDS011;76003;49.038;16.594;2024-02-15T13:49:00;32.97;;;16.88;;
85559;SDS011;76003;49.038;16.594;2024-02-15T13:51:27;37.38;;;17.08;;
85559;SDS011;76003;49.038;16.594;2024-02-15T13:54:14;33.30;;;15.93;;
85559;SDS011;76003;49.038;16.594;2024-02-15T13:59:35;35.53;;;14.10;;
85559;SDS011;76003;49.038;16.594;2024-02-15T14:04:56;33.08;;;15.70;;
85559;SDS011;76003;49.038;16.594;2024-02-15T14:07:37;35.83;;;15.93;;
85559;SDS011;76003;49.038;16.594;2024-02-15T14:10:06;41.72;;;17.40;;
85559;SDS011;76003;49.038;16.594;2024-02-15T14:13:49;37.50;;;15.95;;
85559;SDS011;76003;49.038;16.594;2024-02-15T14:17:20;41.10;;;16.20;;
85559;SDS011;76003;49.038;16.594;2024-02-15T14:19:46;37.85;;;16.30;;
85559;SDS011;76003;49.038;16.594;2024-02-15T14:24:59;38.15;;;17.08;;
85559;SDS011;76003;49.038;16.594;2024-02-15T14:27:45;33.67;;;15.27;;
85559;SDS011;76003;49.038;16.594;2024-02-15T14:30:13;39.90;;;15.77;;
85559;SDS011;76003;49.038;16.594;2024-02-15T14:33:18;37.88;;;16.50;;
85559;SDS011;76003;49.038;16.594;2024-02-15T14:36:44;37.17;;;16.20;;
85559;SDS011;76003;49.038;16.594;2024-02-15T14:40:10;38.38;;;15.60;;
85559;SDS011;76003;49.038;16.594;2024-02-15T14:43:39;39.95;;;16.35;;
85559;SDS011;76003;49.038;16.594;2024-02-15T14:47:05;39.10;;;17.88;;
85559;SDS011;76003;49.038;16.594;2024-02-15T14:50:30;42.63;;;18.60;;
85559;SDS011;76003;49.038;16.594;2024-02-15T14:53:56;35.55;;;17.50;;
85559;SDS011;76003;49.038;16.594;2024-02-15T14:56:24;35.67;;;16.13;;
85559;SDS011;76003;49.038;16.594;2024-02-15T14:59:10;33.78;;;15.10;;
85559;SDS011;76003;49.038;16.594;2024-02-15T15:01:36;29.70;;;13.75;;
85559;SDS011;76003;49.038;16.594;2024-02-15T15:04:23;31.95;;;14.45;;
85559;SDS011;76003;49.038;16.594;2024-02-15T15:06:49;33.67;;;14.25;;
85559;SDS011;76003;49.038;16.594;2024-02-15T15:09:54;33.50;;;14.45;;
85559;SDS011;76003;49.038;16.594;2024-02-15T15:15:34;38.55;;;14.50;;
85559;SDS011;76003;49.038;16.594;2024-02-15T15:18:15;33.45;;;14.43;;
85559;SDS011;76003;49.038;16.594;2024-02-15T15:23:36;32.92;;;12.88;;
85559;SDS011;76003;49.038;16.594;2024-02-15T15:26:20;29.00;;;12.40;;
85559;SDS011;76003;49.038;16.594;2024-02-15T15:29:01;31.10;;;12.98;;
85559;SDS011;76003;49.038;16.594;2024-02-15T15:31:27;29.02;;;13.70;;
85559;SDS011;76003;49.038;16.594;2024-02-15T15:34:13;29.23;;;13.75;;
85559;SDS011;76003;49.038;16.594;2024-02-15T15:36:39;32.97;;;13.43;;
85559;SDS011;76003;49.038;16.594;2024-02-15T15:39:25;34.20;;;13.80;;
85559;SDS011;76003;49.038;16.594;2024-02-15T15:41:52;29.88;;;13.82;;
85559;SDS011;76003;49.038;16.594;2024-02-15T15:44:39;31.08;;;14.30;;
85559;SDS011;76003;49.038;16.594;2024-02-15T15:47:21;27.15;;;13.13;;
85559;SDS011;76003;49.038;16.594;2024-02-15T15:50:02;30.85;;;14.32;;
85559;SDS011;76003;49.038;16.594;2024-02-15T15:52:46;33.47;;;13.88;;
85559;SDS011;76003;49.038;16.594;2024-02-15T15:55:28;34.80;;;15.82;;
85559;SDS011;76003;49.038;16.594;2024-02-15T15:58:10;38.92;;;17.70;;
85559;SDS011;76003;49.038;16.594;2024-02-15T16:03:31;35.15;;;17.05;;
85559;SDS011;76003;49.038;16.594;2024-02-15T16:06:09;47.55;;;22.83;;
85559;SDS011;76003;49.038;16.594;2024-02-15T16:08:58;46.63;;;24.15;;
85559;SDS011;76003;49.038;16.594;2024-02-15T16:11:38;66.65;;;25.33;;
85559;SDS011;76003;49.038;16.594;2024-02-15T16:16:45;72.13;;;28.10;;
85559;SDS011;76003;49.038;16.594;2024-02-15T16:19:31;67.95;;;28.00;;
85559;SDS011;76003;49.038;16.594;2024-02-15T16:21:57;52.17;;;22.92;;
85559;SDS011;76003;49.038;16.594;2024-02-15T16:24:45;60.83;;;26.77;;
85559;SDS011;76003;49.038;16.594;2024-02-15T16:27:27;82.43;;;35.10;;
85559;SDS011;76003;49.038;16.594;2024-02-15T16:30:08;68.97;;;29.20;;
85559;SDS011;76003;49.038;16.594;2024-02-15T16:32:50;70.20;;;28.83;;
85559;SDS011;76003;49.038;16.594;2024-02-15T16:35:31;63.55;;;28.85;;
85559;SDS011;76003;49.038;16.594;2024-02-15T16:38:12;64.13;;;26.77;;
85559;SDS011;76003;49.038;16.594;2024-02-15T16:40:53;60.58;;;27.95;;